sensor_id;sensor_type;location;lat;lon;timestamp;P1;durP1;ratioP1;P2;durP2;ratioP2
59770;SDS011;45649;53.014;6.600;2023-06-10T00:00:49;7.90;;;4.57;;
59770;SDS011;45649;53.014;6.600;2023-06-10T00:03:16;5.80;;;4.60;;
59770;SDS011;45649;53.014;6.600;2023-06-10T00:05:42;5.53;;;4.90;;
59770;SDS011;45649;53.014;6.600;2023-06-10T00:08:08;7.93;;;4.90;;
59770;SDS011;45649;53.014;6.600;2023-06-10T00:10:36;8.83;;;4.80;;
59770;SDS011;45649;53.014;6.600;2023-06-10T00:13:04;7.60;;;5.10;;
59770;SDS011;45649;53.014;6.600;2023-06-10T00:15:30;8.23;;;4.93;;
59770;SDS011;45649;53.014;6.600;2023-06-10T00:17:56;7.70;;;5.00;;
59770;SDS011;45649;53.014;6.600;2023-06-10T00:20:22;7.87;;;4.80;;
59770;SDS011;45649;53.014;6.600;2023-06-10T00:22:52;7.67;;;4.60;;
59770;SDS011;45649;53.014;6.600;2023-06-10T00:25:18;5.70;;;5.00;;
59770;SDS011;45649;53.014;6.600;2023-06-10T00:27:44;6.83;;;4.47;;
59770;SDS011;45649;53.014;6.600;2023-06-10T00:30:10;9.60;;;4.93;;
59770;SDS011;45649;53.014;6.600;2023-06-10T00:32:37;6.27;;;4.83;;
59770;SDS011;45649;53.014;6.600;2023-06-10T00:35:03;11.00;;;5.30;;
59770;SDS011;45649;53.014;6.600;2023-06-10T00:37:30;8.13;;;4.80;;
59770;SDS011;45649;53.014;6.600;2023-06-10T00:39:57;6.70;;;4.70;;
59770;SDS011;45649;53.014;6.600;2023-06-10T00:42:23;7.07;;;4.63;;
59770;SDS011;45649;53.014;6.600;2023-06-10T00:44:50;4.83;;;4.33;;
59770;SDS011;45649;53.014;6.600;2023-06-10T00:47:16;7.23;;;5.20;;
59770;SDS011;45649;53.014;6.600;2023-06-10T00:49:43;5.20;;;4.63;;
59770;SDS011;45649;53.014;6.600;2023-06-10T00:52:09;9.33;;;5.03;;
59770;SDS011;45649;53.014;6.600;2023-06-10T00:54:36;8.87;;;4.83;;
59770;SDS011;45649;53.014;6.600;2023-06-10T00:57:02;5.77;;;4.90;;
59770;SDS011;45649;53.014;6.600;2023-06-10T00:59:29;5.53;;;4.43;;
59770;SDS011;45649;53.014;6.600;2023-06-10T01:01:56;6.37;;;4.70;;
59770;SDS011;45649;53.014;6.600;2023-06-10T01:04:22;7.90;;;5.10;;
59770;SDS011;45649;53.014;6.600;2023-06-10T01:12:17;9.80;;;5.30;;
59770;SDS011;45649;53.014;6.600;2023-06-10T01:14:44;7.37;;;4.90;;
59770;SDS011;45649;53.014;6.600;2023-06-10T01:17:11;6.07;;;4.83;;
59770;SDS011;45649;53.014;6.600;2023-06-10T01:19:37;5.30;;;4.80;;
59770;SDS011;45649;53.014;6.600;2023-06-10T01:22:05;6.00;;;4.73;;
59770;SDS011;45649;53.014;6.600;2023-06-10T01:24:32;8.63;;;4.93;;
59770;SDS011;45649;53.014;6.600;2023-06-10T01:27:00;5.63;;;4.90;;
59770;SDS011;45649;53.014;6.600;2023-06-10T01:32:07;5.87;;;4.77;;
59770;SDS011;45649;53.014;6.600;2023-06-10T01:34:35;8.37;;;4.67;;
59770;SDS011;45649;53.014;6.600;2023-06-10T01:37:02;8.33;;;5.10;;
59770;SDS011;45649;53.014;6.600;2023-06-10T01:39:29;7.93;;;5.13;;
59770;SDS011;45649;53.014;6.600;2023-06-10T01:41:57;5.63;;;4.87;;
59770;SDS011;45649;53.014;6.600;2023-06-10T01:44:23;10.37;;;4.93;;
59770;SDS011;45649;53.014;6.600;2023-06-10T01:46:49;7.77;;;5.43;;
59770;SDS011;45649;53.014;6.600;2023-06-10T01:49:16;8.23;;;5.13;;
59770;SDS011;45649;53.014;6.600;2023-06-10T01:51:42;7.63;;;4.70;;
59770;SDS011;45649;53.014;6.600;2023-06-10T01:54:08;6.70;;;4.90;;
59770;SDS011;45649;53.014;6.600;2023-06-10T01:56:34;5.70;;;4.90;;
59770;SDS011;45649;53.014;6.600;2023-06-10T01:59:00;6.80;;;5.07;;
59770;SDS011;45649;53.014;6.600;2023-06-10T02:04:02;7.30;;;4.93;;
59770;SDS011;45649;53.014;6.600;2023-06-10T02:06:28;6.67;;;5.03;;
59770;SDS011;45649;53.014;6.600;2023-06-10T02:08:55;6.57;;;5.30;;
59770;SDS011;45649;53.014;6.600;2023-06-10T02:11:21;7.73;;;5.27;;
59770;SDS011;45649;53.014;6.600;2023-06-10T02:13:47;6.17;;;4.70;;
59770;SDS011;45649;53.014;6.600;2023-06-10T02:16:13;7.23;;;5.13;;
59770;SDS011;45649;53.014;6.600;2023-06-10T02:18:41;8.10;;;5.17;;
59770;SDS011;45649;53.014;6.600;2023-06-10T02:21:11;8.23;;;5.10;;
59770;SDS011;45649;53.014;6.600;2023-06-10T02:23:37;6.70;;;4.77;;
59770;SDS011;45649;53.014;6.600;2023-06-10T02:26:03;8.40;;;5.13;;
59770;SDS011;45649;53.014;6.600;2023-06-10T02:28:29;8.23;;;5.37;;
59770;SDS011;45649;53.014;6.600;2023-06-10T02:30:56;7.40;;;4.90;;
59770;SDS011;45649;53.014;6.600;2023-06-10T02:33:22;9.97;;;5.27;;
59770;SDS011;45649;53.014;6.600;2023-06-10T02:35:49;6.33;;;4.90;;
59770;SDS011;45649;53.014;6.600;2023-06-10T02:38:15;7.40;;;5.10;;
59770;SDS011;45649;53.014;6.600;2023-06-10T02:40:42;7.47;;;5.10;;
59770;SDS011;45649;53.014;6.600;2023-06-10T02:43:08;7.00;;;5.33;;
59770;SDS011;45649;53.014;6.600;2023-06-10T02:45:34;6.83;;;5.13;;
59770;SDS011;45649;53.014;6.600;2023-06-10T02:48:00;7.97;;;5.33;;
59770;SDS011;45649;53.014;6.600;2023-06-10T02:50:27;8.93;;;4.97;;
59770;SDS011;45649;53.014;6.600;2023-06-10T02:52:53;6.33;;;4.83;;
59770;SDS011;45649;53.014;6.600;2023-06-10T02:55:19;7.63;;;5.10;;
59770;SDS011;45649;53.014;6.600;2023-06-10T02:57:45;7.63;;;5.07;;
59770;SDS011;45649;53.014;6.600;2023-06-10T03:00:11;6.30;;;5.17;;
59770;SDS011;45649;53.014;6.600;2023-06-10T03:02:39;8.63;;;5.17;;
59770;SDS011;45649;53.014;6.600;2023-06-10T03:05:05;5.83;;;4.73;;
59770;SDS011;45649;53.014;6.600;2023-06-10T03:07:35;6.37;;;5.17;;
59770;SDS011;45649;53.014;6.600;2023-06-10T03:10:02;6.87;;;4.73;;
59770;SDS011;45649;53.014;6.600;2023-06-10T03:12:28;8.50;;;5.20;;
59770;SDS011;45649;53.014;6.600;2023-06-10T03:14:54;8.53;;;4.53;;
59770;SDS011;45649;53.014;6.600;2023-06-10T03:17:20;5.77;;;4.80;;
59770;SDS011;45649;53.014;6.600;2023-06-10T03:19:46;6.67;;;5.10;;
59770;SDS011;45649;53.014;6.600;2023-06-10T03:22:13;7.47;;;4.83;;
59770;SDS011;45649;53.014;6.600;2023-06-10T03:24:40;6.83;;;5.10;;
59770;SDS011;45649;53.014;6.600;2023-06-10T03:27:10;8.20;;;5.20;;
59770;SDS011;45649;53.014;6.600;2023-06-10T03:29:36;7.10;;;4.70;;
59770;SDS011;45649;53.014;6.600;2023-06-10T03:32:03;8.73;;;5.03;;
59770;SDS011;45649;53.014;6.600;2023-06-10T03:34:29;7.83;;;5.07;;
59770;SDS011;45649;53.014;6.600;2023-06-10T03:36:55;7.83;;;5.20;;
59770;SDS011;45649;53.014;6.600;2023-06-10T03:39:22;9.40;;;4.87;;
59770;SDS011;45649;53.014;6.600;2023-06-10T03:41:54;8.90;;;4.97;;
59770;SDS011;45649;53.014;6.600;2023-06-10T03:44:21;8.00;;;5.20;;
59770;SDS011;45649;53.014;6.600;2023-06-10T03:46:47;8.43;;;5.47;;
59770;SDS011;45649;53.014;6.600;2023-06-10T03:49:13;11.10;;;5.73;;
59770;SDS011;45649;53.014;6.600;2023-06-10T03:51:40;7.80;;;5.23;;
59770;SDS011;45649;53.014;6.600;2023-06-10T03:54:06;6.70;;;5.10;;
59770;SDS011;45649;53.014;6.600;2023-06-10T03:56:32;6.53;;;4.60;;
59770;SDS011;45649;53.014;6.600;2023-06-10T03:58:58;7.93;;;4.90;;
59770;SDS011;45649;53.014;6.600;2023-06-10T04:01:25;8.97;;;5.07;;
59770;SDS011;45649;53.014;6.600;2023-06-10T04:03:51;9.20;;;5.17;;
59770;SDS011;45649;53.014;6.600;2023-06-10T04:06:19;5.43;;;4.93;;
59770;SDS011;45649;53.014;6.600;2023-06-10T04:08:46;9.10;;;5.40;;
59770;SDS011;45649;53.014;6.600;2023-06-10T04:11:12;8.40;;;5.30;;
59770;SDS011;45649;53.014;6.600;2023-06-10T04:13:38;6.50;;;4.87;;
59770;SDS011;45649;53.014;6.600;2023-06-10T04:16:05;8.90;;;5.20;;
59770;SDS011;45649;53.014;6.600;2023-06-10T04:18:31;7.83;;;5.53;;
59770;SDS011;45649;53.014;6.600;2023-06-10T04:20:57;7.73;;;5.20;;
59770;SDS011;45649;53.014;6.600;2023-06-10T04:23:23;6.77;;;4.83;;
59770;SDS011;45649;53.014;6.600;2023-06-10T04:25:49;9.67;;;5.07;;
59770;SDS011;45649;53.014;6.600;2023-06-10T04:28:15;11.83;;;5.43;;
59770;SDS011;45649;53.014;6.600;2023-06-10T04:30:41;7.97;;;5.23;;
59770;SDS011;45649;53.014;6.600;2023-06-10T04:33:08;7.90;;;5.70;;
59770;SDS011;45649;53.014;6.600;2023-06-10T04:35:34;9.43;;;5.27;;
59770;SDS011;45649;53.014;6.600;2023-06-10T04:38:00;7.27;;;5.43;;
59770;SDS011;45649;53.014;6.600;2023-06-10T04:40:27;6.53;;;5.30;;
59770;SDS011;45649;53.014;6.600;2023-06-10T04:42:53;8.87;;;5.70;;
59770;SDS011;45649;53.014;6.600;2023-06-10T04:45:19;9.07;;;5.40;;
59770;SDS011;45649;53.014;6.600;2023-06-10T04:47:45;8.30;;;5.47;;
59770;SDS011;45649;53.014;6.600;2023-06-10T04:50:12;9.20;;;5.87;;
59770;SDS011;45649;53.014;6.600;2023-06-10T04:52:38;8.00;;;5.77;;
59770;SDS011;45649;53.014;6.600;2023-06-10T04:55:06;9.73;;;5.87;;
59770;SDS011;45649;53.014;6.600;2023-06-10T04:57:33;8.13;;;5.70;;
59770;SDS011;45649;53.014;6.600;2023-06-10T04:59:59;6.80;;;5.47;;
59770;SDS011;45649;53.014;6.600;2023-06-10T05:02:25;9.33;;;5.60;;
59770;SDS011;45649;53.014;6.600;2023-06-10T05:04:51;9.00;;;5.40;;
59770;SDS011;45649;53.014;6.600;2023-06-10T05:07:18;8.80;;;5.40;;
59770;SDS011;45649;53.014;6.600;2023-06-10T05:09:44;9.77;;;5.43;;
59770;SDS011;45649;53.014;6.600;2023-06-10T05:12:10;10.13;;;5.90;;
59770;SDS011;45649;53.014;6.600;2023-06-10T05:14:36;7.60;;;5.73;;
59770;SDS011;45649;53.014;6.600;2023-06-10T05:17:03;7.70;;;5.30;;
59770;SDS011;45649;53.014;6.600;2023-06-10T05:19:31;6.97;;;5.23;;
59770;SDS011;45649;53.014;6.600;2023-06-10T05:21:57;8.73;;;6.00;;
59770;SDS011;45649;53.014;6.600;2023-06-10T05:24:23;9.00;;;5.47;;
59770;SDS011;45649;53.014;6.600;2023-06-10T05:26:49;9.07;;;5.50;;
59770;SDS011;45649;53.014;6.600;2023-06-10T05:29:15;11.43;;;5.80;;
59770;SDS011;45649;53.014;6.600;2023-06-10T05:31:42;10.10;;;5.53;;
59770;SDS011;45649;53.014;6.600;2023-06-10T05:34:08;13.23;;;5.80;;
59770;SDS011;45649;53.014;6.600;2023-06-10T05:36:34;6.23;;;5.10;;
59770;SDS011;45649;53.014;6.600;2023-06-10T05:39:00;7.07;;;5.50;;
59770;SDS011;45649;53.014;6.600;2023-06-10T05:41:26;8.40;;;5.80;;
59770;SDS011;45649;53.014;6.600;2023-06-10T05:43:52;10.77;;;5.80;;
59770;SDS011;45649;53.014;6.600;2023-06-10T05:46:19;7.73;;;5.50;;
59770;SDS011;45649;53.014;6.600;2023-06-10T05:48:45;7.73;;;5.67;;
59770;SDS011;45649;53.014;6.600;2023-06-10T05:51:11;9.07;;;5.40;;
59770;SDS011;45649;53.014;6.600;2023-06-10T05:53:37;8.80;;;5.50;;
59770;SDS011;45649;53.014;6.600;2023-06-10T05:56:03;11.47;;;5.50;;
59770;SDS011;45649;53.014;6.600;2023-06-10T05:58:29;8.40;;;5.87;;
59770;SDS011;45649;53.014;6.600;2023-06-10T06:00:56;8.97;;;5.67;;
59770;SDS011;45649;53.014;6.600;2023-06-10T06:03:22;9.60;;;5.47;;
59770;SDS011;45649;53.014;6.600;2023-06-10T06:05:48;9.70;;;6.00;;
59770;SDS011;45649;53.014;6.600;2023-06-10T06:08:14;9.73;;;6.10;;
59770;SDS011;45649;53.014;6.600;2023-06-10T06:10:43;8.87;;;5.83;;
59770;SDS011;45649;53.014;6.600;2023-06-10T06:13:09;9.67;;;5.37;;
59770;SDS011;45649;53.014;6.600;2023-06-10T06:15:36;11.90;;;6.00;;
59770;SDS011;45649;53.014;6.600;2023-06-10T06:18:03;9.87;;;6.23;;
59770;SDS011;45649;53.014;6.600;2023-06-10T06:20:29;9.07;;;6.50;;
59770;SDS011;45649;53.014;6.600;2023-06-10T06:22:55;9.83;;;6.27;;
59770;SDS011;45649;53.014;6.600;2023-06-10T06:25:22;9.47;;;6.20;;
59770;SDS011;45649;53.014;6.600;2023-06-10T06:27:48;9.60;;;5.87;;
59770;SDS011;45649;53.014;6.600;2023-06-10T06:30:14;8.53;;;5.80;;
59770;SDS011;45649;53.014;6.600;2023-06-10T06:32:40;10.27;;;6.23;;
59770;SDS011;45649;53.014;6.600;2023-06-10T06:35:06;7.30;;;6.10;;
59770;SDS011;45649;53.014;6.600;2023-06-10T06:37:33;11.43;;;6.40;;
59770;SDS011;45649;53.014;6.600;2023-06-10T06:40:00;8.67;;;6.13;;
59770;SDS011;45649;53.014;6.600;2023-06-10T06:42:26;12.40;;;6.13;;
59770;SDS011;45649;53.014;6.600;2023-06-10T06:44:52;14.10;;;6.63;;
59770;SDS011;45649;53.014;6.600;2023-06-10T06:47:18;11.13;;;6.07;;
59770;SDS011;45649;53.014;6.600;2023-06-10T06:49:47;10.57;;;6.80;;
59770;SDS011;45649;53.014;6.600;2023-06-10T06:52:14;11.33;;;6.80;;
59770;SDS011;45649;53.014;6.600;2023-06-10T06:54:40;13.30;;;7.00;;
59770;SDS011;45649;53.014;6.600;2023-06-10T06:57:07;12.00;;;6.50;;
59770;SDS011;45649;53.014;6.600;2023-06-10T06:59:33;9.77;;;6.60;;
59770;SDS011;45649;53.014;6.600;2023-06-10T07:01:59;9.80;;;6.37;;
59770;SDS011;45649;53.014;6.600;2023-06-10T07:04:25;12.10;;;6.73;;
59770;SDS011;45649;53.014;6.600;2023-06-10T07:06:51;7.97;;;6.20;;
59770;SDS011;45649;53.014;6.600;2023-06-10T07:09:17;10.83;;;6.37;;
59770;SDS011;45649;53.014;6.600;2023-06-10T07:11:43;11.73;;;5.63;;
59770;SDS011;45649;53.014;6.600;2023-06-10T07:14:10;7.67;;;6.13;;
59770;SDS011;45649;53.014;6.600;2023-06-10T07:16:36;10.03;;;6.20;;
59770;SDS011;45649;53.014;6.600;2023-06-10T07:19:02;7.73;;;5.60;;
59770;SDS011;45649;53.014;6.600;2023-06-10T07:21:29;8.40;;;5.70;;
59770;SDS011;45649;53.014;6.600;2023-06-10T07:23:55;9.73;;;5.80;;
59770;SDS011;45649;53.014;6.600;2023-06-10T07:26:22;10.83;;;5.90;;
59770;SDS011;45649;53.014;6.600;2023-06-10T07:28:48;9.23;;;5.77;;
59770;SDS011;45649;53.014;6.600;2023-06-10T07:31:14;9.70;;;5.87;;
59770;SDS011;45649;53.014;6.600;2023-06-10T07:33:40;7.80;;;5.57;;
59770;SDS011;45649;53.014;6.600;2023-06-10T07:36:08;7.00;;;5.20;;
59770;SDS011;45649;53.014;6.600;2023-06-10T07:38:34;10.50;;;5.77;;
59770;SDS011;45649;53.014;6.600;2023-06-10T07:41:01;8.80;;;5.70;;
59770;SDS011;45649;53.014;6.600;2023-06-10T07:43:27;12.77;;;4.87;;
59770;SDS011;45649;53.014;6.600;2023-06-10T07:45:53;7.87;;;5.40;;
59770;SDS011;45649;53.014;6.600;2023-06-10T07:48:19;11.03;;;5.33;;
59770;SDS011;45649;53.014;6.600;2023-06-10T07:50:45;7.57;;;5.90;;
59770;SDS011;45649;53.014;6.600;2023-06-10T07:53:11;11.87;;;5.90;;
59770;SDS011;45649;53.014;6.600;2023-06-10T07:55:37;9.33;;;5.73;;
59770;SDS011;45649;53.014;6.600;2023-06-10T07:58:04;7.90;;;5.67;;
59770;SDS011;45649;53.014;6.600;2023-06-10T08:00:30;10.23;;;5.73;;
59770;SDS011;45649;53.014;6.600;2023-06-10T08:02:56;8.80;;;5.97;;
59770;SDS011;45649;53.014;6.600;2023-06-10T08:05:22;6.63;;;5.50;;
59770;SDS011;45649;53.014;6.600;2023-06-10T08:07:48;6.03;;;4.90;;
59770;SDS011;45649;53.014;6.600;2023-06-10T08:10:14;8.60;;;5.33;;
59770;SDS011;45649;53.014;6.600;2023-06-10T08:12:41;6.27;;;4.90;;
59770;SDS011;45649;53.014;6.600;2023-06-10T08:15:07;14.00;;;6.00;;
59770;SDS011;45649;53.014;6.600;2023-06-10T08:17:33;8.70;;;6.03;;
59770;SDS011;45649;53.014;6.600;2023-06-10T08:20:00;11.00;;;6.13;;
59770;SDS011;45649;53.014;6.600;2023-06-10T08:22:26;10.10;;;5.67;;
59770;SDS011;45649;53.014;6.600;2023-06-10T08:24:53;7.00;;;5.40;;
59770;SDS011;45649;53.014;6.600;2023-06-10T08:27:21;8.33;;;5.77;;
59770;SDS011;45649;53.014;6.600;2023-06-10T08:29:47;7.17;;;5.50;;
59770;SDS011;45649;53.014;6.600;2023-06-10T08:32:13;6.73;;;5.37;;
59770;SDS011;45649;53.014;6.600;2023-06-10T08:34:39;7.03;;;5.70;;
59770;SDS011;45649;53.014;6.600;2023-06-10T08:37:06;5.93;;;5.37;;
59770;SDS011;45649;53.014;6.600;2023-06-10T08:39:32;6.93;;;5.30;;
59770;SDS011;45649;53.014;6.600;2023-06-10T08:42:11;9.73;;;5.50;;
59770;SDS011;45649;53.014;6.600;2023-06-10T08:44:41;7.23;;;5.03;;
59770;SDS011;45649;53.014;6.600;2023-06-10T08:47:14;7.33;;;4.93;;
59770;SDS011;45649;53.014;6.600;2023-06-10T08:49:45;5.37;;;4.87;;
59770;SDS011;45649;53.014;6.600;2023-06-10T08:52:14;6.47;;;5.13;;
59770;SDS011;45649;53.014;6.600;2023-06-10T08:54:42;7.87;;;5.30;;
59770;SDS011;45649;53.014;6.600;2023-06-10T08:57:08;5.67;;;4.73;;
59770;SDS011;45649;53.014;6.600;2023-06-10T08:59:34;5.13;;;4.63;;
59770;SDS011;45649;53.014;6.600;2023-06-10T09:02:01;8.70;;;4.70;;
59770;SDS011;45649;53.014;6.600;2023-06-10T09:04:28;7.53;;;5.07;;
59770;SDS011;45649;53.014;6.600;2023-06-10T09:06:54;6.63;;;4.73;;
59770;SDS011;45649;53.014;6.600;2023-06-10T09:09:22;6.73;;;4.50;;
59770;SDS011;45649;53.014;6.600;2023-06-10T09:11:48;5.03;;;4.53;;
59770;SDS011;45649;53.014;6.600;2023-06-10T09:14:14;5.93;;;4.90;;
59770;SDS011;45649;53.014;6.600;2023-06-10T09:16:41;7.90;;;5.33;;
59770;SDS011;45649;53.014;6.600;2023-06-10T09:19:08;5.90;;;4.80;;
59770;SDS011;45649;53.014;6.600;2023-06-10T09:21:34;5.60;;;4.70;;
59770;SDS011;45649;53.014;6.600;2023-06-10T09:24:03;6.37;;;4.57;;
59770;SDS011;45649;53.014;6.600;2023-06-10T09:26:30;7.40;;;4.40;;
59770;SDS011;45649;53.014;6.600;2023-06-10T09:29:06;6.47;;;4.30;;
59770;SDS011;45649;53.014;6.600;2023-06-10T09:31:37;4.87;;;4.37;;
59770;SDS011;45649;53.014;6.600;2023-06-10T09:34:08;9.67;;;5.03;;
59770;SDS011;45649;53.014;6.600;2023-06-10T09:36:35;5.50;;;4.10;;
59770;SDS011;45649;53.014;6.600;2023-06-10T09:39:01;8.23;;;4.33;;
59770;SDS011;45649;53.014;6.600;2023-06-10T09:41:34;5.77;;;3.70;;
59770;SDS011;45649;53.014;6.600;2023-06-10T09:44:01;5.40;;;4.20;;
59770;SDS011;45649;53.014;6.600;2023-06-10T09:46:31;5.43;;;3.60;;
59770;SDS011;45649;53.014;6.600;2023-06-10T09:48:58;5.27;;;3.93;;
59770;SDS011;45649;53.014;6.600;2023-06-10T09:51:24;6.17;;;3.87;;
59770;SDS011;45649;53.014;6.600;2023-06-10T09:53:53;5.17;;;4.40;;
59770;SDS011;45649;53.014;6.600;2023-06-10T09:56:19;4.07;;;3.67;;
59770;SDS011;45649;53.014;6.600;2023-06-10T09:58:49;6.37;;;3.70;;
59770;SDS011;45649;53.014;6.600;2023-06-10T10:01:15;5.47;;;3.50;;
59770;SDS011;45649;53.014;6.600;2023-06-10T10:03:49;7.03;;;3.37;;
59770;SDS011;45649;53.014;6.600;2023-06-10T10:06:16;5.70;;;3.80;;
59770;SDS011;45649;53.014;6.600;2023-06-10T10:08:42;6.30;;;3.60;;
59770;SDS011;45649;53.014;6.600;2023-06-10T10:11:08;6.83;;;3.67;;
59770;SDS011;45649;53.014;6.600;2023-06-10T10:13:35;4.13;;;3.53;;
59770;SDS011;45649;53.014;6.600;2023-06-10T10:16:03;3.77;;;3.40;;
59770;SDS011;45649;53.014;6.600;2023-06-10T10:18:30;5.10;;;3.70;;
59770;SDS011;45649;53.014;6.600;2023-06-10T10:20:57;3.70;;;3.40;;
59770;SDS011;45649;53.014;6.600;2023-06-10T10:23:36;6.50;;;3.50;;
59770;SDS011;45649;53.014;6.600;2023-06-10T10:26:04;3.43;;;3.10;;
59770;SDS011;45649;53.014;6.600;2023-06-10T10:28:45;5.27;;;3.30;;
59770;SDS011;45649;53.014;6.600;2023-06-10T10:31:13;4.07;;;3.43;;
59770;SDS011;45649;53.014;6.600;2023-06-10T10:36:35;3.80;;;3.30;;
59770;SDS011;45649;53.014;6.600;2023-06-10T10:39:02;7.40;;;3.33;;
59770;SDS011;45649;53.014;6.600;2023-06-10T10:41:30;4.53;;;3.13;;
59770;SDS011;45649;53.014;6.600;2023-06-10T10:43:56;4.93;;;3.50;;
59770;SDS011;45649;53.014;6.600;2023-06-10T10:46:23;4.67;;;3.53;;
59770;SDS011;45649;53.014;6.600;2023-06-10T10:48:52;4.30;;;2.90;;
59770;SDS011;45649;53.014;6.600;2023-06-10T10:51:19;5.63;;;2.90;;
59770;SDS011;45649;53.014;6.600;2023-06-10T10:54:09;5.07;;;3.40;;
59770;SDS011;45649;53.014;6.600;2023-06-10T10:56:31;3.97;;;3.20;;
59770;SDS011;45649;53.014;6.600;2023-06-10T10:59:04;3.50;;;3.10;;
59770;SDS011;45649;53.014;6.600;2023-06-10T11:01:39;3.57;;;3.03;;
59770;SDS011;45649;53.014;6.600;2023-06-10T11:04:07;6.40;;;3.30;;
59770;SDS011;45649;53.014;6.600;2023-06-10T11:06:34;3.43;;;2.80;;
59770;SDS011;45649;53.014;6.600;2023-06-10T11:09:00;3.10;;;2.90;;
59770;SDS011;45649;53.014;6.600;2023-06-10T11:11:27;3.90;;;2.60;;
59770;SDS011;45649;53.014;6.600;2023-06-10T11:16:41;3.00;;;2.67;;
59770;SDS011;45649;53.014;6.600;2023-06-10T11:19:08;4.23;;;3.40;;
59770;SDS011;45649;53.014;6.600;2023-06-10T11:24:19;5.93;;;3.43;;
59770;SDS011;45649;53.014;6.600;2023-06-10T11:26:45;4.13;;;3.30;;
59770;SDS011;45649;53.014;6.600;2023-06-10T11:29:11;4.20;;;3.30;;
59770;SDS011;45649;53.014;6.600;2023-06-10T11:31:44;4.53;;;3.40;;
59770;SDS011;45649;53.014;6.600;2023-06-10T11:34:10;5.50;;;3.43;;
59770;SDS011;45649;53.014;6.600;2023-06-10T11:36:38;4.70;;;3.37;;
59770;SDS011;45649;53.014;6.600;2023-06-10T11:39:08;4.73;;;3.50;;
59770;SDS011;45649;53.014;6.600;2023-06-10T11:41:35;4.13;;;3.10;;
59770;SDS011;45649;53.014;6.600;2023-06-10T11:44:02;3.70;;;2.83;;
59770;SDS011;45649;53.014;6.600;2023-06-10T11:46:29;3.60;;;3.03;;
59770;SDS011;45649;53.014;6.600;2023-06-10T11:48:56;8.87;;;3.47;;
59770;SDS011;45649;53.014;6.600;2023-06-10T11:51:26;4.67;;;2.90;;
59770;SDS011;45649;53.014;6.600;2023-06-10T11:53:53;4.53;;;3.07;;
59770;SDS011;45649;53.014;6.600;2023-06-10T11:56:20;3.77;;;2.77;;
59770;SDS011;45649;53.014;6.600;2023-06-10T11:58:49;6.47;;;2.67;;
59770;SDS011;45649;53.014;6.600;2023-06-10T12:01:24;5.07;;;2.90;;
59770;SDS011;45649;53.014;6.600;2023-06-10T12:03:57;3.00;;;2.77;;
59770;SDS011;45649;53.014;6.600;2023-06-10T12:06:23;3.53;;;2.87;;
59770;SDS011;45649;53.014;6.600;2023-06-10T12:08:49;3.80;;;2.70;;
59770;SDS011;45649;53.014;6.600;2023-06-10T12:11:16;3.33;;;2.73;;
59770;SDS011;45649;53.014;6.600;2023-06-10T12:13:46;3.70;;;2.73;;
59770;SDS011;45649;53.014;6.600;2023-06-10T12:16:15;3.53;;;3.03;;
59770;SDS011;45649;53.014;6.600;2023-06-10T12:18:45;4.13;;;3.10;;
59770;SDS011;45649;53.014;6.600;2023-06-10T12:21:24;4.53;;;2.87;;
59770;SDS011;45649;53.014;6.600;2023-06-10T12:24:04;4.27;;;2.90;;
59770;SDS011;45649;53.014;6.600;2023-06-10T12:26:34;4.20;;;2.70;;
59770;SDS011;45649;53.014;6.600;2023-06-10T12:29:01;3.47;;;3.10;;
59770;SDS011;45649;53.014;6.600;2023-06-10T12:31:27;4.47;;;3.00;;
59770;SDS011;45649;53.014;6.600;2023-06-10T12:34:09;4.87;;;3.00;;
59770;SDS011;45649;53.014;6.600;2023-06-10T12:36:35;3.83;;;2.90;;
59770;SDS011;45649;53.014;6.600;2023-06-10T12:39:04;8.20;;;3.10;;
59770;SDS011;45649;53.014;6.600;2023-06-10T12:41:30;4.77;;;3.00;;
59770;SDS011;45649;53.014;6.600;2023-06-10T12:43:59;3.47;;;3.00;;
59770;SDS011;45649;53.014;6.600;2023-06-10T12:46:25;5.40;;;3.13;;
59770;SDS011;45649;53.014;6.600;2023-06-10T12:48:51;5.53;;;3.20;;
59770;SDS011;45649;53.014;6.600;2023-06-10T12:51:17;5.10;;;3.00;;
59770;SDS011;45649;53.014;6.600;2023-06-10T12:53:43;3.73;;;2.83;;
59770;SDS011;45649;53.014;6.600;2023-06-10T12:56:10;6.40;;;3.00;;
59770;SDS011;45649;53.014;6.600;2023-06-10T12:58:36;3.93;;;2.90;;
59770;SDS011;45649;53.014;6.600;2023-06-10T13:01:02;5.53;;;2.90;;
59770;SDS011;45649;53.014;6.600;2023-06-10T13:03:29;5.37;;;3.17;;
59770;SDS011;45649;53.014;6.600;2023-06-10T13:05:55;3.47;;;3.10;;
59770;SDS011;45649;53.014;6.600;2023-06-10T13:08:22;5.07;;;3.40;;
59770;SDS011;45649;53.014;6.600;2023-06-10T13:10:48;4.87;;;3.10;;
59770;SDS011;45649;53.014;6.600;2023-06-10T13:13:14;3.30;;;3.00;;
59770;SDS011;45649;53.014;6.600;2023-06-10T13:15:40;3.20;;;2.80;;
59770;SDS011;45649;53.014;6.600;2023-06-10T13:18:06;5.73;;;3.63;;
59770;SDS011;45649;53.014;6.600;2023-06-10T13:20:32;3.73;;;3.40;;
59770;SDS011;45649;53.014;6.600;2023-06-10T13:22:58;4.87;;;3.63;;
59770;SDS011;45649;53.014;6.600;2023-06-10T13:25:25;6.97;;;3.90;;
59770;SDS011;45649;53.014;6.600;2023-06-10T13:27:51;4.10;;;3.20;;
59770;SDS011;45649;53.014;6.600;2023-06-10T13:30:17;5.77;;;3.40;;
59770;SDS011;45649;53.014;6.600;2023-06-10T13:32:43;5.17;;;3.47;;
59770;SDS011;45649;53.014;6.600;2023-06-10T13:35:09;5.07;;;3.57;;
59770;SDS011;45649;53.014;6.600;2023-06-10T13:37:35;6.53;;;3.33;;
59770;SDS011;45649;53.014;6.600;2023-06-10T13:40:02;3.87;;;3.27;;
59770;SDS011;45649;53.014;6.600;2023-06-10T13:42:28;4.60;;;3.50;;
59770;SDS011;45649;53.014;6.600;2023-06-10T13:44:55;4.17;;;3.27;;
59770;SDS011;45649;53.014;6.600;2023-06-10T13:47:24;3.77;;;3.20;;
59770;SDS011;45649;53.014;6.600;2023-06-10T13:49:50;3.73;;;3.03;;
59770;SDS011;45649;53.014;6.600;2023-06-10T13:52:16;3.97;;;3.33;;
59770;SDS011;45649;53.014;6.600;2023-06-10T13:54:43;3.43;;;3.13;;
59770;SDS011;45649;53.014;6.600;2023-06-10T13:57:09;6.23;;;3.33;;
59770;SDS011;45649;53.014;6.600;2023-06-10T13:59:36;6.23;;;3.23;;
59770;SDS011;45649;53.014;6.600;2023-06-10T14:02:02;3.77;;;3.13;;
59770;SDS011;45649;53.014;6.600;2023-06-10T14:04:28;4.10;;;2.87;;
59770;SDS011;45649;53.014;6.600;2023-06-10T14:06:55;4.53;;;2.90;;
59770;SDS011;45649;53.014;6.600;2023-06-10T14:09:22;5.20;;;3.10;;
59770;SDS011;45649;53.014;6.600;2023-06-10T14:11:48;3.70;;;3.20;;
59770;SDS011;45649;53.014;6.600;2023-06-10T14:14:14;4.10;;;2.90;;
59770;SDS011;45649;53.014;6.600;2023-06-10T14:16:40;7.03;;;2.80;;
59770;SDS011;45649;53.014;6.600;2023-06-10T14:19:06;4.87;;;2.47;;
59770;SDS011;45649;53.014;6.600;2023-06-10T14:21:32;3.50;;;2.83;;
59770;SDS011;45649;53.014;6.600;2023-06-10T14:23:58;3.47;;;2.90;;
59770;SDS011;45649;53.014;6.600;2023-06-10T14:26:25;3.87;;;2.70;;
59770;SDS011;45649;53.014;6.600;2023-06-10T14:28:51;3.53;;;2.60;;
59770;SDS011;45649;53.014;6.600;2023-06-10T14:31:17;4.47;;;2.80;;
59770;SDS011;45649;53.014;6.600;2023-06-10T14:33:43;2.80;;;2.60;;
59770;SDS011;45649;53.014;6.600;2023-06-10T14:36:10;3.23;;;2.60;;
59770;SDS011;45649;53.014;6.600;2023-06-10T14:38:36;6.30;;;2.67;;
59770;SDS011;45649;53.014;6.600;2023-06-10T14:41:02;3.43;;;2.80;;
59770;SDS011;45649;53.014;6.600;2023-06-10T14:43:28;4.47;;;2.73;;
59770;SDS011;45649;53.014;6.600;2023-06-10T14:45:54;5.57;;;2.30;;
59770;SDS011;45649;53.014;6.600;2023-06-10T14:48:21;3.47;;;2.70;;
59770;SDS011;45649;53.014;6.600;2023-06-10T14:50:47;3.57;;;2.60;;
59770;SDS011;45649;53.014;6.600;2023-06-10T14:53:19;4.27;;;2.60;;
59770;SDS011;45649;53.014;6.600;2023-06-10T14:55:45;4.97;;;3.30;;
59770;SDS011;45649;53.014;6.600;2023-06-10T14:58:11;5.87;;;2.70;;
59770;SDS011;45649;53.014;6.600;2023-06-10T15:00:37;6.60;;;3.43;;
59770;SDS011;45649;53.014;6.600;2023-06-10T15:03:03;3.10;;;2.80;;